createdAt,value
2019-03-12T00:00:48.857Z,62.30
2019-03-12T00:03:18.199Z,62.30
2019-03-12T00:05:47.493Z,62.40
2019-03-12T00:08:16.818Z,62.50
2019-03-12T00:10:46.098Z,62.40
2019-03-12T00:13:15.412Z,62.40
2019-03-12T00:15:44.688Z,62.40
2019-03-12T00:18:13.970Z,62.40
2019-03-12T00:20:43.293Z,62.40
2019-03-12T00:23:12.644Z,62.50
2019-03-12T00:25:41.941Z,62.50
2019-03-12T00:28:11.493Z,62.60
2019-03-12T00:30:40.770Z,62.70
2019-03-12T00:33:10.150Z,62.70
2019-03-12T00:35:39.433Z,62.70
2019-03-12T00:38:08.722Z,62.70
2019-03-12T00:40:38.017Z,62.70
2019-03-12T00:43:07.305Z,62.70
2019-03-12T00:45:36.679Z,62.80
2019-03-12T00:48:05.975Z,62.70
2019-03-12T00:50:35.254Z,62.70
2019-03-12T00:53:04.545Z,62.70
2019-03-12T00:55:33.942Z,62.70
2019-03-12T00:58:03.292Z,62.70
2019-03-12T01:00:32.578Z,62.70
2019-03-12T01:03:01.881Z,62.70
2019-03-12T01:05:31.175Z,62.80
2019-03-12T01:08:00.719Z,62.70
2019-03-12T01:10:30.095Z,62.80
2019-03-12T01:12:59.628Z,62.70
2019-03-12T01:15:28.994Z,62.70
2019-03-12T01:17:58.298Z,62.80
2019-03-12T01:20:27.592Z,62.60
2019-03-12T01:22:57.116Z,62.60
2019-03-12T01:25:26.792Z,62.40
2019-03-12T01:27:56.080Z,62.20
2019-03-12T01:30:25.367Z,62.20
2019-03-12T01:32:54.663Z,62.00
2019-03-12T01:35:23.947Z,62.00
2019-03-12T01:37:53.254Z,62.00
2019-03-12T01:40:22.524Z,61.80
2019-03-12T01:42:52.630Z,61.60
2019-03-12T01:45:21.954Z,61.40
2019-03-12T01:47:51.234Z,61.20
2019-03-12T01:50:20.534Z,61.10
2019-03-12T01:52:49.816Z,61.00
2019-03-12T01:55:19.481Z,60.70
2019-03-12T01:57:48.762Z,60.70
2019-03-12T02:00:19.741Z,60.50
2019-03-12T02:02:49.032Z,60.20
2019-03-12T02:05:18.321Z,60.20
2019-03-12T02:07:47.667Z,60.10
2019-03-12T02:10:16.924Z,60.20
2019-03-12T02:12:46.269Z,60.20
2019-03-12T02:15:16.979Z,60.30
2019-03-12T02:17:46.273Z,60.50
2019-03-12T02:20:18.263Z,60.70
2019-03-12T02:22:47.544Z,60.80
2019-03-12T02:25:20.105Z,60.90
2019-03-12T02:27:49.392Z,61.10
2019-03-12T02:30:22.464Z,61.30
2019-03-12T02:32:51.945Z,61.50
2019-03-12T02:35:21.210Z,61.60
2019-03-12T02:37:50.765Z,61.90
2019-03-12T02:40:20.142Z,61.90
2019-03-12T02:42:49.425Z,62.00
2019-03-12T02:45:18.736Z,62.10
2019-03-12T02:47:48.025Z,62.20
2019-03-12T02:50:17.397Z,62.40
2019-03-12T02:52:47.053Z,62.40
2019-03-12T02:55:16.358Z,62.40
2019-03-12T02:57:45.731Z,62.50
2019-03-12T03:00:21.765Z,62.60
2019-03-12T03:02:51.246Z,62.60
2019-03-12T03:05:20.803Z,62.70
2019-03-12T03:07:51.774Z,62.70
2019-03-12T03:10:21.071Z,62.80
2019-03-12T03:12:50.515Z,62.80
2019-03-12T03:15:26.702Z,62.90
2019-03-12T03:17:56.072Z,62.90
2019-03-12T03:20:25.374Z,62.90
2019-03-12T03:22:54.942Z,63.10
2019-03-12T03:25:24.480Z,63.00
2019-03-12T03:27:53.847Z,63.10
2019-03-12T03:30:26.539Z,63.10
2019-03-12T03:32:55.882Z,63.10
2019-03-12T03:35:25.459Z,63.00
2019-03-12T03:37:54.818Z,63.20
2019-03-12T03:40:24.122Z,63.20
2019-03-12T03:42:53.498Z,63.30
2019-03-12T03:45:22.788Z,64.10
2019-03-12T03:47:52.099Z,63.40
2019-03-12T03:50:21.638Z,63.50
2019-03-12T03:52:50.945Z,63.30
2019-03-12T03:55:22.153Z,62.60
2019-03-12T03:57:51.537Z,63.50
2019-03-12T04:00:27.007Z,63.50
2019-03-12T04:02:56.299Z,63.40
2019-03-12T04:05:25.611Z,63.30
2019-03-12T04:07:55.160Z,63.40
2019-03-12T04:10:24.457Z,63.30
2019-03-12T04:12:53.745Z,63.40
2019-03-12T04:15:23.120Z,63.30
2019-03-12T04:21:05.301Z,62.90
2019-03-12T04:23:37.791Z,62.80
2019-03-12T04:26:07.116Z,62.70
2019-03-12T04:28:36.409Z,62.70
2019-03-12T04:31:05.695Z,62.50
2019-03-12T04:34:00.643Z,62.50
2019-03-12T04:36:30.239Z,62.30
2019-03-12T04:38:59.792Z,62.40
2019-03-12T04:41:29.106Z,62.00
2019-03-12T04:43:58.391Z,61.90
2019-03-12T04:46:27.730Z,61.90
2019-03-12T04:48:57.042Z,61.90
2019-03-12T04:51:26.610Z,62.00
2019-03-12T04:53:55.901Z,62.00
2019-03-12T04:56:25.298Z,62.00
2019-03-12T04:58:54.715Z,62.00
2019-03-12T05:01:23.971Z,61.90
2019-03-12T05:03:53.278Z,61.90
2019-03-12T05:06:22.642Z,61.90
2019-03-12T05:08:51.934Z,61.70
2019-03-12T05:11:21.478Z,61.80
2019-03-12T05:14:26.441Z,61.70
2019-03-12T05:17:05.887Z,61.70
2019-03-12T05:19:35.471Z,61.70
2019-03-12T05:22:04.831Z,61.70
2019-03-12T05:24:34.190Z,61.60
2019-03-12T05:27:03.615Z,61.50
2019-03-12T05:29:32.936Z,61.50
2019-03-12T05:32:02.253Z,61.50
2019-03-12T05:34:31.535Z,61.50
2019-03-12T05:37:01.097Z,61.30
2019-03-12T05:39:30.381Z,61.40
2019-03-12T05:41:59.690Z,61.40
2019-03-12T05:44:28.993Z,61.30
2019-03-12T05:46:58.306Z,61.30
2019-03-12T05:49:27.699Z,61.30
2019-03-12T05:51:57.000Z,61.20
2019-03-12T05:54:26.296Z,61.20
2019-03-12T05:56:55.595Z,61.20
2019-03-12T05:59:24.882Z,61.30
2019-03-12T06:01:54.260Z,61.10
2019-03-12T06:04:23.566Z,60.90
2019-03-12T06:06:52.845Z,60.70
2019-03-12T06:09:30.306Z,60.70
2019-03-12T06:11:53.175Z,60.60
2019-03-12T06:14:22.571Z,60.50
2019-03-12T06:16:51.880Z,60.40
2019-03-12T06:19:21.168Z,60.40
2019-03-12T06:21:50.484Z,60.30
2019-03-12T06:24:19.777Z,60.20
2019-03-12T06:26:49.080Z,60.20
2019-03-12T06:29:18.368Z,60.20
2019-03-12T06:31:49.307Z,60.00
2019-03-12T06:34:20.255Z,59.80
2019-03-12T06:36:51.296Z,59.80
2019-03-12T06:39:38.078Z,59.70
2019-03-12T06:42:24.960Z,59.50
2019-03-12T06:44:58.539Z,59.40
2019-03-12T06:50:17.782Z,59.30
2019-03-12T06:52:51.526Z,59.20
2019-03-12T06:55:22.470Z,59.10
2019-03-12T06:58:19.690Z,58.80
2019-03-12T07:01:08.163Z,58.70
2019-03-12T07:03:48.986Z,58.70
2019-03-12T07:06:22.879Z,58.40
2019-03-12T07:08:53.818Z,58.40
2019-03-12T07:11:36.583Z,58.20
2019-03-12T07:14:16.813Z,57.70
2019-03-12T07:16:47.866Z,58.00
2019-03-12T07:19:30.844Z,57.80
2019-03-12T07:22:16.854Z,57.60
2019-03-12T07:24:50.447Z,57.60
2019-03-12T07:27:27.102Z,57.50
2019-03-12T07:30:13.935Z,57.40
2019-03-12T07:32:56.204Z,57.20
2019-03-12T07:35:44.314Z,57.00
2019-03-12T07:38:15.290Z,56.80
2019-03-12T07:41:01.858Z,56.40
2019-03-12T07:43:32.779Z,56.00
2019-03-12T07:46:01.861Z,55.70
2019-03-12T07:48:36.980Z,55.70
2019-03-12T07:51:10.858Z,55.50
2019-03-12T07:53:58.618Z,55.50
2019-03-12T07:56:22.420Z,55.10
2019-03-12T07:59:09.174Z,55.30
2019-03-12T08:01:49.121Z,55.30
2019-03-12T08:04:21.121Z,55.10
2019-03-12T08:06:52.074Z,54.90
2019-03-12T08:09:23.010Z,55.00
2019-03-12T08:12:10.129Z,55.10
2019-03-12T08:14:43.787Z,54.80
2019-03-12T08:17:30.712Z,55.10
2019-03-12T08:20:13.599Z,54.70
2019-03-12T08:22:50.527Z,54.40
2019-03-12T08:25:30.400Z,54.50
2019-03-12T08:28:01.420Z,54.50
2019-03-12T08:30:44.147Z,54.40
2019-03-12T08:33:31.319Z,54.20
2019-03-12T08:36:02.512Z,54.10
2019-03-12T08:38:36.312Z,53.20
2019-03-12T08:41:12.781Z,52.80
2019-03-12T08:43:59.892Z,52.30
2019-03-12T08:46:47.055Z,51.70
2019-03-12T08:49:20.683Z,51.20
2019-03-12T08:52:07.809Z,51.20
2019-03-12T08:54:53.372Z,51.00
2019-03-12T08:57:16.799Z,51.10
2019-03-12T08:59:56.184Z,51.00
2019-03-12T09:02:45.012Z,50.80
2019-03-12T09:05:24.436Z,50.80
2019-03-12T09:08:04.515Z,50.60
2019-03-12T09:10:36.716Z,50.30
2019-03-12T09:13:13.614Z,50.50
2019-03-12T09:15:45.282Z,50.50
2019-03-12T09:18:32.071Z,50.40
2019-03-12T09:21:11.967Z,50.60
2019-03-12T09:23:58.954Z,50.10
2019-03-12T09:26:31.248Z,50.10
2019-03-12T09:29:00.353Z,50.20
2019-03-12T09:31:29.505Z,49.80
2019-03-12T09:34:00.505Z,49.70
2019-03-12T09:36:43.588Z,49.70
2019-03-12T09:39:18.765Z,49.70
2019-03-12T09:42:00.420Z,48.90
2019-03-12T09:44:40.816Z,49.00
2019-03-12T09:47:11.883Z,48.90
2019-03-12T09:49:57.982Z,48.80
2019-03-12T09:52:27.082Z,48.50
2019-03-12T09:55:00.504Z,48.60
2019-03-12T09:57:33.973Z,48.40
2019-03-12T10:00:16.029Z,47.60
2019-03-12T10:02:56.643Z,47.70
2019-03-12T10:05:27.720Z,47.60
2019-03-12T10:08:04.628Z,47.60
2019-03-12T10:10:38.482Z,47.80
2019-03-12T10:13:12.974Z,47.50
2019-03-12T10:15:43.938Z,47.50
2019-03-12T10:18:14.892Z,47.30
2019-03-12T10:20:48.770Z,47.40
2019-03-12T10:23:35.946Z,47.70
2019-03-12T10:26:24.920Z,48.00
2019-03-12T10:29:12.100Z,47.90
2019-03-12T10:31:45.722Z,47.50
2019-03-12T10:34:14.797Z,47.70
2019-03-12T10:36:45.775Z,47.60
2019-03-12T10:39:55.190Z,47.60
2019-03-12T10:42:27.259Z,48.70
2019-03-12T10:45:14.127Z,47.80
2019-03-12T10:47:45.324Z,47.80
2019-03-12T10:50:14.711Z,47.80
2019-03-12T10:52:44.128Z,48.10
2019-03-12T10:55:14.121Z,48.10
2019-03-12T10:57:43.714Z,48.20
2019-03-12T11:00:18.060Z,48.40
2019-03-12T11:02:47.374Z,48.40
2019-03-12T11:05:17.130Z,48.60
2019-03-12T11:07:46.436Z,48.50
2019-03-12T11:10:19.854Z,48.30
2019-03-12T11:12:49.147Z,48.50
2019-03-12T11:15:18.459Z,48.50
2019-03-12T11:17:49.859Z,48.50
2019-03-12T11:20:26.441Z,48.70
2019-03-12T11:22:56.008Z,48.60
2019-03-12T11:25:27.612Z,48.40
2019-03-12T11:27:56.331Z,48.30
2019-03-12T11:30:25.618Z,48.90
2019-03-12T11:32:54.921Z,48.10
2019-03-12T11:35:24.236Z,47.80
2019-03-12T11:37:53.559Z,47.80
2019-03-12T11:40:31.578Z,47.90
2019-03-12T11:42:57.228Z,48.20
2019-03-12T11:45:36.367Z,48.00
2019-03-12T11:47:57.640Z,47.70
2019-03-12T11:50:27.525Z,47.90
2019-03-12T11:52:59.273Z,47.80
2019-03-12T11:55:28.465Z,47.70
2019-03-12T11:57:57.947Z,47.80
2019-03-12T12:00:29.101Z,47.20
2019-03-12T12:03:00.305Z,47.10
2019-03-12T12:05:30.001Z,47.20
2019-03-12T12:07:59.293Z,46.90
2019-03-12T12:10:29.872Z,47.00
2019-03-12T12:12:59.299Z,46.80
2019-03-12T12:15:28.616Z,46.70
2019-03-12T12:17:58.167Z,46.40
2019-03-12T12:20:30.054Z,46.50
2019-03-12T12:22:58.580Z,46.60
2019-03-12T12:25:27.979Z,46.60
2019-03-12T12:27:57.276Z,46.20
2019-03-12T12:30:26.917Z,46.20
2019-03-12T12:32:56.297Z,46.20
2019-03-12T12:35:25.588Z,46.10
2019-03-12T12:37:54.878Z,46.00
2019-03-12T12:40:24.212Z,45.80
2019-03-12T12:42:53.586Z,45.80
2019-03-12T12:45:38.554Z,45.90
2019-03-12T12:48:07.927Z,46.20
2019-03-12T12:50:37.293Z,46.10
2019-03-12T12:53:06.766Z,46.20
2019-03-12T12:55:36.384Z,45.90
2019-03-12T12:58:05.755Z,46.10
2019-03-12T13:00:38.008Z,45.90
2019-03-12T13:03:06.081Z,45.70
2019-03-12T13:05:35.457Z,45.80
2019-03-12T13:08:05.020Z,45.80
2019-03-12T13:10:35.719Z,45.40
2019-03-12T13:13:05.088Z,45.40
2019-03-12T13:15:34.403Z,45.40
2019-03-12T13:18:03.691Z,45.60
2019-03-12T13:20:32.984Z,45.40
2019-03-12T13:23:02.370Z,45.20
2019-03-12T13:25:31.659Z,45.10
2019-03-12T13:28:00.947Z,45.40
2019-03-12T13:30:30.262Z,45.30
2019-03-12T13:32:59.569Z,45.30
2019-03-12T13:35:28.926Z,45.50
2019-03-12T13:37:58.227Z,45.70
2019-03-12T13:40:27.595Z,45.40
2019-03-12T13:42:57.081Z,45.20
2019-03-12T13:45:32.230Z,45.20
2019-03-12T13:48:01.681Z,45.70
2019-03-12T13:50:31.089Z,45.90
2019-03-12T13:53:02.014Z,45.90
2019-03-12T13:55:31.393Z,46.20
2019-03-12T13:58:00.784Z,46.40
2019-03-12T14:00:33.164Z,46.60
2019-03-12T14:03:01.122Z,46.60
2019-03-12T14:05:30.501Z,46.40
2019-03-12T14:07:59.789Z,46.20
2019-03-12T14:10:29.163Z,46.10
2019-03-12T14:12:58.635Z,45.70
2019-03-12T14:15:32.498Z,45.90
2019-03-12T14:18:02.048Z,46.00
2019-03-12T14:20:48.970Z,46.20
2019-03-12T14:23:29.406Z,46.10
2019-03-12T14:25:58.694Z,45.80
2019-03-12T14:28:28.258Z,45.80
2019-03-12T14:30:57.558Z,45.90
2019-03-12T14:33:26.842Z,46.00
2019-03-12T14:35:56.137Z,46.00
2019-03-12T14:38:25.521Z,46.10
2019-03-12T14:40:54.901Z,46.20
2019-03-12T14:43:24.202Z,46.50
2019-03-12T14:45:53.490Z,46.50
2019-03-12T14:48:40.804Z,46.70
2019-03-12T14:51:35.932Z,46.90
2019-03-12T14:54:13.259Z,47.10
2019-03-12T14:56:43.468Z,47.40
2019-03-12T14:59:13.025Z,47.60
2019-03-12T15:01:42.413Z,47.90
2019-03-12T15:04:14.775Z,48.10
2019-03-12T15:06:42.835Z,48.30
2019-03-12T15:09:14.829Z,48.30
2019-03-12T15:11:44.137Z,48.50
2019-03-12T15:14:13.521Z,48.50
2019-03-12T15:16:42.823Z,48.60
2019-03-12T15:19:12.225Z,48.70
2019-03-12T15:21:41.623Z,48.70
2019-03-12T15:24:11.072Z,48.80
2019-03-12T15:26:40.364Z,48.70
2019-03-12T15:29:09.674Z,48.60
2019-03-12T15:31:40.358Z,48.70
2019-03-12T15:34:10.213Z,48.80
2019-03-12T15:36:39.754Z,48.90
2019-03-12T15:39:09.230Z,48.90
2019-03-12T15:41:38.761Z,49.00
2019-03-12T15:44:09.889Z,48.90
2019-03-12T15:46:39.490Z,49.00
2019-03-12T15:49:09.008Z,49.00
2019-03-12T15:51:38.746Z,49.00
2019-03-12T15:54:08.505Z,49.10
2019-03-12T15:56:38.227Z,49.10
2019-03-12T15:59:07.775Z,49.20
2019-03-12T16:01:37.381Z,49.20
2019-03-12T16:04:06.981Z,49.20
2019-03-12T16:06:36.469Z,49.10
2019-03-12T16:09:06.972Z,49.20
2019-03-12T16:11:36.429Z,49.30
2019-03-12T16:14:06.109Z,49.30
2019-03-12T16:16:35.664Z,49.30
2019-03-12T16:19:05.088Z,49.30
2019-03-12T16:21:34.613Z,49.40
2019-03-12T16:24:04.120Z,49.40
2019-03-12T16:26:33.501Z,49.50
2019-03-12T16:29:03.247Z,49.60
2019-03-12T16:31:32.816Z,49.60
2019-03-12T16:34:02.387Z,49.60
2019-03-12T16:36:31.916Z,50.00
2019-03-12T16:39:01.829Z,50.20
2019-03-12T16:41:31.850Z,50.40
2019-03-12T16:44:01.349Z,50.80
2019-03-12T16:46:30.840Z,51.10
2019-03-12T16:49:00.313Z,51.50
2019-03-12T16:51:29.883Z,51.80
2019-03-12T16:53:59.454Z,52.00
2019-03-12T16:56:28.874Z,52.30
2019-03-12T16:58:58.393Z,52.60
2019-03-12T17:01:28.001Z,52.90
2019-03-12T17:03:57.503Z,54.00
2019-03-12T17:06:27.171Z,53.90
2019-03-12T17:08:58.468Z,54.40
2019-03-12T17:11:28.210Z,54.70
2019-03-12T17:13:57.746Z,55.10
2019-03-12T17:16:27.547Z,55.10
2019-03-12T17:18:59.377Z,55.60
2019-03-12T17:21:28.737Z,55.70
2019-03-12T17:23:58.649Z,56.00
2019-03-12T17:26:28.554Z,56.10
2019-03-12T17:28:58.088Z,56.40
2019-03-12T17:31:27.751Z,56.70
2019-03-12T17:33:57.182Z,56.70
2019-03-12T17:36:28.471Z,56.90
2019-03-12T17:38:58.503Z,57.00
2019-03-12T17:41:28.393Z,57.70
2019-03-12T17:43:58.168Z,57.60
2019-03-12T17:46:27.952Z,57.50
2019-03-12T17:48:57.454Z,57.70
2019-03-12T17:51:30.462Z,57.90
2019-03-12T17:53:59.407Z,58.10
2019-03-12T17:56:29.259Z,57.20
2019-03-12T17:58:59.712Z,58.20
2019-03-12T18:01:31.595Z,58.20
2019-03-12T18:04:01.849Z,58.50
2019-03-12T18:06:35.068Z,58.60
2019-03-12T18:09:08.920Z,59.00
2019-03-12T18:11:38.834Z,59.20
2019-03-12T18:14:12.697Z,59.50
2019-03-12T18:16:43.387Z,59.90
2019-03-12T18:19:15.377Z,60.30
2019-03-12T18:21:47.868Z,60.40
2019-03-12T18:24:21.024Z,60.50
2019-03-12T18:26:52.450Z,60.00
2019-03-12T18:29:23.528Z,59.80
2019-03-12T18:31:53.293Z,59.60
2019-03-12T18:34:28.332Z,59.60
2019-03-12T18:36:59.792Z,59.50
2019-03-12T18:39:30.004Z,59.90
2019-03-12T18:42:01.538Z,60.10
2019-03-12T18:44:32.200Z,60.60
2019-03-12T18:47:02.176Z,60.90
2019-03-12T18:49:34.225Z,61.20
2019-03-12T18:52:04.205Z,61.70
2019-03-12T18:54:33.974Z,62.50
2019-03-12T18:57:03.728Z,63.00
2019-03-12T18:59:33.237Z,63.80
2019-03-12T19:02:03.147Z,64.40
2019-03-12T19:04:35.519Z,65.00
2019-03-12T19:07:05.091Z,65.10
2019-03-12T19:09:34.554Z,66.00
2019-03-12T19:12:05.039Z,66.50
2019-03-12T19:14:34.943Z,67.10
2019-03-12T19:17:05.673Z,67.50
2019-03-12T19:19:35.169Z,67.90
2019-03-12T19:22:04.805Z,67.90
2019-03-12T19:24:34.411Z,68.40
2019-03-12T19:27:04.715Z,68.80
2019-03-12T19:29:34.234Z,68.90
2019-03-12T19:32:05.559Z,68.60
2019-03-12T19:34:35.065Z,68.80
2019-03-12T19:37:04.585Z,68.90
2019-03-12T19:39:34.007Z,69.00
2019-03-12T19:42:03.594Z,69.40
2019-03-12T19:44:33.583Z,70.50
2019-03-12T19:47:04.546Z,70.20
2019-03-12T19:49:34.462Z,70.10
2019-03-12T19:52:10.241Z,70.30
2019-03-12T19:54:40.032Z,70.90
2019-03-12T19:57:09.884Z,70.50
2019-03-12T19:59:39.333Z,70.80
2019-03-12T20:02:16.051Z,70.70
2019-03-12T20:04:47.250Z,70.50
2019-03-12T20:07:12.216Z,70.50
2019-03-12T20:09:43.958Z,70.20
2019-03-12T20:12:24.426Z,70.10
2019-03-12T20:15:28.694Z,70.30
2019-03-12T20:18:52.812Z,70.20
2019-03-12T20:21:48.979Z,70.10
2019-03-12T20:25:13.144Z,69.20
2019-03-12T20:27:46.067Z,70.20
2019-03-12T20:30:56.246Z,69.40
2019-03-12T20:34:04.595Z,70.50
2019-03-12T20:37:07.446Z,69.90
2019-03-12T20:40:26.068Z,69.70
2019-03-12T20:43:22.828Z,69.60
2019-03-12T20:46:28.093Z,69.90
2019-03-12T20:49:11.730Z,69.70
2019-03-12T20:52:14.646Z,69.40
2019-03-12T20:55:17.057Z,69.40
2019-03-12T20:58:20.571Z,69.30
2019-03-12T21:01:38.609Z,69.40
2019-03-12T21:04:25.264Z,69.40
2019-03-12T21:07:30.772Z,69.10
2019-03-12T21:10:30.167Z,69.10
2019-03-12T21:13:22.101Z,69.10
2019-03-12T21:16:18.786Z,69.00
2019-03-12T21:19:10.822Z,68.80
2019-03-12T21:22:18.215Z,68.50
2019-03-12T21:25:06.925Z,68.40
2019-03-12T21:28:17.989Z,68.50
2019-03-12T21:30:47.288Z,68.60
2019-03-12T21:33:18.089Z,68.30
2019-03-12T21:35:47.539Z,68.40
2019-03-12T21:38:17.209Z,68.30
2019-03-12T21:40:47.513Z,68.30
2019-03-12T21:43:16.798Z,68.20
2019-03-12T21:45:46.112Z,68.20
2019-03-12T21:48:15.404Z,68.20
2019-03-12T21:50:44.739Z,68.10
2019-03-12T21:53:14.131Z,68.10
2019-03-12T21:55:43.432Z,68.10
2019-03-12T21:58:12.723Z,67.80
2019-03-12T22:00:42.114Z,67.70
2019-03-12T22:03:11.405Z,67.50
2019-03-12T22:05:40.689Z,67.40
2019-03-12T22:08:09.987Z,67.40
2019-03-12T22:10:39.284Z,67.30
2019-03-12T22:13:08.583Z,67.30
2019-03-12T22:15:37.973Z,67.20
2019-03-12T22:18:07.268Z,67.20
2019-03-12T22:20:36.975Z,67.30
2019-03-12T22:23:10.995Z,67.30
2019-03-12T22:25:40.305Z,67.20
2019-03-12T22:28:09.600Z,67.00
2019-03-12T22:30:38.967Z,67.00
2019-03-12T22:33:08.279Z,67.10
2019-03-12T22:35:37.580Z,67.10
2019-03-12T22:38:06.870Z,67.00
2019-03-12T22:40:36.187Z,66.90
2019-03-12T22:43:05.473Z,66.90
2019-03-12T22:45:34.756Z,66.70
2019-03-12T22:48:04.062Z,66.70
2019-03-12T22:50:33.425Z,66.80
2019-03-12T22:53:02.795Z,66.80
2019-03-12T22:55:32.364Z,66.80
2019-03-12T22:58:01.664Z,67.00
2019-03-12T23:00:34.846Z,66.80
2019-03-12T23:03:04.155Z,66.70
2019-03-12T23:05:33.516Z,66.70
2019-03-12T23:08:02.810Z,66.70
2019-03-12T23:10:32.194Z,66.50
2019-03-12T23:13:01.518Z,66.30
2019-03-12T23:15:30.803Z,66.10
2019-03-12T23:18:00.376Z,65.90
2019-03-12T23:20:29.771Z,65.70
2019-03-12T23:22:59.085Z,65.60
2019-03-12T23:25:28.453Z,65.40
2019-03-12T23:27:57.761Z,65.40
2019-03-12T23:30:28.866Z,65.40
2019-03-12T23:32:58.416Z,65.10
2019-03-12T23:35:27.790Z,64.90
2019-03-12T23:37:57.162Z,64.70
2019-03-12T23:40:26.457Z,64.80
2019-03-12T23:42:55.842Z,64.60
2019-03-12T23:45:25.221Z,64.40
2019-03-12T23:47:54.614Z,64.30
2019-03-12T23:50:23.914Z,64.10
2019-03-12T23:52:53.289Z,64.00
2019-03-12T23:55:22.753Z,63.80
2019-03-12T23:57:52.052Z,63.70
